createdAt,value
2022-09-25T00:01:10.764Z,100967.69
2022-09-25T00:03:40.845Z,100968.38
2022-09-25T00:06:11.117Z,100968.53
2022-09-25T00:08:40.103Z,100978.69
2022-09-25T00:11:09.829Z,100972.16
2022-09-25T00:13:38.226Z,100970.44
2022-09-25T00:16:06.489Z,100972.31
2022-09-25T00:18:51.976Z,100967.84
2022-09-25T00:21:21.191Z,100971.63
2022-09-25T00:23:48.997Z,100969.19
2022-09-25T00:26:17.993Z,100975.56
2022-09-25T00:28:45.772Z,100968.47
2022-09-25T00:31:21.225Z,100961.06
2022-09-25T00:33:49.129Z,100960.72
2022-09-25T00:36:16.911Z,100960.72
2022-09-25T00:38:46.244Z,100956.06
2022-09-25T00:41:14.056Z,100964.47
2022-09-25T00:43:44.527Z,100958.97
2022-09-25T00:46:16.755Z,100965.34
2022-09-25T00:48:50.707Z,100963.75
2022-09-25T00:51:29.777Z,100971.00
2022-09-25T00:54:04.432Z,100967.53
2022-09-25T00:56:37.438Z,100971.16
2022-09-25T00:59:06.830Z,100975.09
2022-09-25T01:01:34.789Z,100976.16
2022-09-25T01:04:03.760Z,100973.41
2022-09-25T01:06:33.412Z,100979.59
2022-09-25T01:09:03.188Z,100976.81
2022-09-25T01:11:32.062Z,100981.81
2022-09-25T01:14:03.105Z,100978.91
2022-09-25T01:16:38.477Z,100977.16
2022-09-25T01:19:18.191Z,100969.91
2022-09-25T01:21:52.767Z,100973.84
2022-09-25T01:25:03.755Z,100975.66
2022-09-25T01:27:59.454Z,100980.00
2022-09-25T01:30:34.675Z,100970.88
2022-09-25T01:33:08.873Z,100979.13
2022-09-25T01:35:42.980Z,100973.63
2022-09-25T01:38:21.123Z,100982.03
2022-09-25T01:40:57.568Z,100983.94
2022-09-25T01:43:32.095Z,100977.56
2022-09-25T01:46:05.798Z,100978.75
2022-09-25T01:48:34.756Z,100987.16
2022-09-25T01:51:06.565Z,100985.44
2022-09-25T01:53:39.284Z,100990.38
2022-09-25T01:56:12.474Z,100989.50
2022-09-25T01:58:44.178Z,100995.03
2022-09-25T02:01:23.651Z,100997.78
2022-09-25T02:03:57.127Z,100997.09
2022-09-25T02:06:26.181Z,100992.75
2022-09-25T02:12:00.373Z,100996.78
2022-09-25T02:14:31.930Z,100986.09
2022-09-25T02:17:04.094Z,100991.63
2022-09-25T02:19:49.628Z,100987.56
2022-09-25T02:22:22.384Z,100993.94
2022-09-25T02:24:58.882Z,100993.25
2022-09-25T02:27:28.638Z,100991.53
2022-09-25T02:29:58.212Z,100994.28
2022-09-25T02:32:30.766Z,100989.47
2022-09-25T02:35:00.908Z,100988.06
2022-09-25T02:37:29.613Z,100990.66
2022-09-25T02:40:00.302Z,100989.63
2022-09-25T02:42:36.564Z,100990.31
2022-09-25T02:45:13.451Z,100994.97
2022-09-25T02:47:51.026Z,100983.13
2022-09-25T02:50:25.035Z,100989.47
2022-09-25T02:52:59.982Z,100985.00
2022-09-25T02:55:35.586Z,100988.63
2022-09-25T02:58:09.270Z,100992.22
2022-09-25T03:00:39.590Z,100990.50
2022-09-25T03:03:13.747Z,100992.22
2022-09-25T03:05:42.426Z,100984.28
2022-09-25T03:08:28.489Z,100987.03
2022-09-25T03:10:56.379Z,100988.22
2022-09-25T03:13:31.327Z,100988.91
2022-09-25T03:16:01.999Z,100988.91
2022-09-25T03:18:32.166Z,100993.56
2022-09-25T03:21:00.299Z,100998.34
2022-09-25T03:23:28.034Z,100994.72
2022-09-25T03:25:56.543Z,101000.22
2022-09-25T03:28:24.607Z,101003.00
2022-09-25T03:31:01.106Z,100998.19
2022-09-25T03:33:32.327Z,101000.22
2022-09-25T03:36:10.800Z,101003.00
2022-09-25T03:38:38.949Z,101002.44
2022-09-25T03:41:09.376Z,101004.47
2022-09-25T03:43:37.518Z,101007.53
2022-09-25T03:46:05.969Z,101006.84
2022-09-25T03:48:36.033Z,101006.84
2022-09-25T03:51:04.574Z,101005.25
2022-09-25T03:53:33.370Z,101006.44
2022-09-25T03:56:01.641Z,101003.66
2022-09-25T03:58:29.766Z,100997.28
2022-09-25T04:00:58.126Z,101004.69
2022-09-25T04:03:27.924Z,101001.06
2022-09-25T04:05:57.708Z,101003.81
2022-09-25T04:08:26.973Z,101004.00
2022-09-25T04:10:56.257Z,101005.00
2022-09-25T04:13:24.547Z,101004.16
2022-09-25T04:15:52.338Z,101000.69
2022-09-25T04:18:20.594Z,100997.06
2022-09-25T04:20:48.689Z,100999.94
2022-09-25T04:23:18.474Z,100993.59
2022-09-25T04:25:46.521Z,100994.78
2022-09-25T04:28:14.267Z,100995.78
2022-09-25T04:30:42.018Z,100988.56
2022-09-25T04:33:27.978Z,101003.19
2022-09-25T04:35:56.546Z,100986.09
2022-09-25T04:38:25.782Z,100987.84
2022-09-25T04:40:53.665Z,100990.72
2022-09-25T04:43:21.574Z,100997.25
2022-09-25T04:45:50.635Z,100991.94
2022-09-25T04:48:18.453Z,101000.19
2022-09-25T04:50:49.418Z,101004.63
2022-09-25T04:53:17.448Z,101004.09
2022-09-25T04:55:48.066Z,101012.34
2022-09-25T04:58:15.853Z,101007.13
2022-09-25T05:00:43.610Z,101010.91
2022-09-25T05:03:11.489Z,101008.34
2022-09-25T05:05:39.333Z,101007.59
2022-09-25T05:08:07.394Z,101008.63
2022-09-25T05:10:35.930Z,101009.63
2022-09-25T05:13:06.192Z,101011.38
2022-09-25T05:15:34.606Z,101003.41
2022-09-25T05:18:03.769Z,101013.53
2022-09-25T05:20:31.654Z,101014.56
2022-09-25T05:23:00.141Z,101003.41
2022-09-25T05:25:28.987Z,101004.59
2022-09-25T05:27:59.461Z,101001.84
2022-09-25T05:30:30.773Z,101000.97
2022-09-25T05:32:59.288Z,101005.03
2022-09-25T05:35:29.370Z,100998.53
2022-09-25T05:37:57.198Z,100996.06
2022-09-25T05:40:25.368Z,101004.31
2022-09-25T05:42:55.136Z,101003.44
2022-09-25T05:45:24.098Z,101002.63
2022-09-25T05:48:02.948Z,101009.81
2022-09-25T05:50:32.285Z,101002.91
2022-09-25T05:53:00.812Z,101009.28
2022-09-25T05:55:29.349Z,101014.78
2022-09-25T05:58:01.184Z,101012.75
2022-09-25T06:00:29.134Z,101013.31
2022-09-25T06:02:56.898Z,101011.31
2022-09-25T06:05:26.137Z,101011.16
2022-09-25T06:07:54.545Z,101016.81
2022-09-25T06:10:22.604Z,101015.94
2022-09-25T06:12:50.421Z,101015.94
2022-09-25T06:15:18.217Z,101019.56
2022-09-25T06:17:45.975Z,101018.53
2022-09-25T06:20:16.273Z,101019.56
2022-09-25T06:22:45.691Z,101021.16
2022-09-25T06:25:15.734Z,101018.53
2022-09-25T06:27:43.658Z,101018.41
2022-09-25T06:30:12.265Z,101025.44
2022-09-25T06:32:40.038Z,101031.69
2022-09-25T06:35:08.187Z,101031.38
2022-09-25T06:37:35.935Z,101036.56
2022-09-25T06:40:05.675Z,101032.22
2022-09-25T06:42:35.199Z,101034.34
2022-09-25T06:45:03.045Z,101037.94
2022-09-25T06:47:30.792Z,101047.41
2022-09-25T06:49:58.546Z,101043.50
2022-09-25T06:52:27.661Z,101043.81
2022-09-25T06:54:55.425Z,101039.25
2022-09-25T06:57:24.559Z,101044.19
2022-09-25T06:59:52.300Z,101045.50
2022-09-25T07:02:40.001Z,101056.41
2022-09-25T07:05:08.780Z,101046.78
2022-09-25T07:07:36.567Z,101044.63
2022-09-25T07:10:04.799Z,101035.38
2022-09-25T07:12:34.531Z,101048.53
2022-09-25T07:15:02.389Z,101051.78
2022-09-25T07:17:30.137Z,101053.50
2022-09-25T07:19:57.924Z,101052.41
2022-09-25T07:22:25.637Z,101059.47
2022-09-25T07:24:53.486Z,101057.03
2022-09-25T07:27:21.185Z,101055.97
2022-09-25T07:29:50.294Z,101054.41
2022-09-25T07:32:18.062Z,101060.84
2022-09-25T07:34:46.192Z,101056.22
2022-09-25T07:37:13.920Z,101057.09
2022-09-25T07:39:41.931Z,101059.03
2022-09-25T07:42:09.701Z,101057.31
2022-09-25T07:44:38.701Z,101068.56
2022-09-25T07:47:08.899Z,101073.94
2022-09-25T07:49:36.841Z,101066.69
2022-09-25T07:52:06.128Z,101060.97
2022-09-25T07:54:34.551Z,101058.75
2022-09-25T07:57:02.317Z,101058.91
2022-09-25T07:59:30.140Z,101060.66
2022-09-25T08:01:59.002Z,101060.44
2022-09-25T08:04:28.248Z,101063.91
2022-09-25T08:06:55.981Z,101053.72
2022-09-25T08:09:23.780Z,101052.69
2022-09-25T08:11:51.773Z,101059.78
2022-09-25T08:14:22.199Z,101063.56
2022-09-25T08:16:55.793Z,101058.38
2022-09-25T08:19:24.138Z,101067.38
2022-09-25T08:21:53.585Z,101066.19
2022-09-25T08:24:21.379Z,101066.19
2022-09-25T08:26:50.176Z,101073.25
2022-09-25T08:29:18.525Z,101067.19
2022-09-25T08:31:46.484Z,101072.19
2022-09-25T08:34:39.584Z,101064.91
2022-09-25T08:37:07.645Z,101069.56
2022-09-25T08:39:35.460Z,101065.97
2022-09-25T08:42:03.615Z,101064.03
2022-09-25T08:44:37.334Z,101063.81
2022-09-25T08:47:40.478Z,101060.16
2022-09-25T08:50:12.922Z,101062.94
2022-09-25T08:52:45.310Z,101057.06
2022-09-25T08:55:18.051Z,101067.25
2022-09-25T08:57:47.301Z,101058.25
2022-09-25T09:00:21.177Z,101062.28
2022-09-25T09:02:54.582Z,101059.31
2022-09-25T09:05:27.644Z,101059.88
2022-09-25T09:08:01.480Z,101060.44
2022-09-25T09:10:35.102Z,101065.28
2022-09-25T09:13:21.889Z,101069.25
2022-09-25T09:15:57.239Z,101064.75
2022-09-25T09:18:36.003Z,101064.75
2022-09-25T09:21:11.624Z,101061.97
2022-09-25T09:23:50.814Z,101060.06
2022-09-25T09:26:25.998Z,101062.84
2022-09-25T09:29:20.972Z,101058.00
2022-09-25T09:31:58.083Z,101059.34
2022-09-25T09:35:04.159Z,101058.47
2022-09-25T09:37:44.885Z,101055.88
2022-09-25T09:40:25.334Z,101054.09
2022-09-25T09:43:06.887Z,101047.31
2022-09-25T09:45:45.234Z,101048.97
2022-09-25T09:48:20.174Z,101046.16
2022-09-25T09:50:53.094Z,101050.16
2022-09-25T09:53:34.171Z,101043.22
2022-09-25T09:56:09.366Z,101043.22
2022-09-25T09:58:45.897Z,101044.94
2022-09-25T10:01:36.500Z,101038.69
2022-09-25T10:04:07.109Z,101046.50
2022-09-25T10:06:39.276Z,101036.47
2022-09-25T10:09:08.843Z,101047.56
2022-09-25T10:11:38.791Z,101043.34
2022-09-25T10:14:07.038Z,101042.16
2022-09-25T10:16:37.019Z,101044.22
2022-09-25T10:19:11.914Z,101036.72
2022-09-25T10:21:43.334Z,101031.31
2022-09-25T10:24:11.335Z,101035.25
2022-09-25T10:26:41.537Z,101038.16
2022-09-25T10:29:27.823Z,101032.91
2022-09-25T10:32:00.955Z,101033.22
2022-09-25T10:34:30.101Z,101027.09
2022-09-25T10:36:58.731Z,101032.59
2022-09-25T10:39:44.170Z,101031.66
2022-09-25T10:42:38.767Z,101025.38
2022-09-25T10:45:41.365Z,101027.47
2022-09-25T10:48:48.504Z,101028.13
2022-09-25T10:51:18.556Z,101033.09
2022-09-25T10:53:47.348Z,101025.91
2022-09-25T10:56:19.364Z,101028.16
2022-09-25T10:58:55.220Z,101027.28
2022-09-25T11:01:31.806Z,101038.66
2022-09-25T11:04:00.614Z,101029.69
2022-09-25T11:06:32.998Z,101030.34
2022-09-25T11:09:09.015Z,101020.97
2022-09-25T11:11:39.379Z,101024.25
2022-09-25T11:14:18.816Z,101019.16
2022-09-25T11:16:49.708Z,101021.56
2022-09-25T11:19:23.524Z,101023.13
2022-09-25T11:22:00.278Z,101022.91
2022-09-25T11:24:40.455Z,101019.06
2022-09-25T11:27:15.293Z,101019.94
2022-09-25T11:29:54.467Z,101016.97
2022-09-25T11:32:31.008Z,101015.06
2022-09-25T11:35:16.177Z,101010.88
2022-09-25T11:37:52.565Z,101009.78
2022-09-25T11:40:49.392Z,101014.78
2022-09-25T11:43:26.092Z,101005.22
2022-09-25T11:46:08.277Z,101014.69
2022-09-25T11:48:47.138Z,101001.47
2022-09-25T11:51:24.994Z,101006.28
2022-09-25T11:54:31.993Z,101000.38
2022-09-25T11:57:01.897Z,101000.16
2022-09-25T11:59:44.750Z,100998.91
2022-09-25T12:02:27.910Z,100999.78
2022-09-25T12:05:10.697Z,100993.34
2022-09-25T12:07:52.664Z,100996.31
2022-09-25T12:10:37.465Z,100999.28
2022-09-25T12:13:13.471Z,100997.19
2022-09-25T12:15:53.672Z,100991.25
2022-09-25T12:18:43.684Z,100990.38
2022-09-25T12:21:17.623Z,100980.06
2022-09-25T12:23:51.702Z,100989.25
2022-09-25T12:26:30.621Z,100980.06
2022-09-25T12:29:14.070Z,100980.06
2022-09-25T12:31:53.556Z,100972.78
2022-09-25T12:34:40.351Z,100971.50
2022-09-25T12:37:23.105Z,100972.00
2022-09-25T12:39:59.120Z,100965.00
2022-09-25T12:42:38.019Z,100962.50
2022-09-25T12:45:17.349Z,100966.41
2022-09-25T12:47:51.752Z,100955.09
2022-09-25T12:50:30.543Z,100955.97
2022-09-25T12:53:06.011Z,100957.03
2022-09-25T12:55:40.071Z,100956.16
2022-09-25T12:58:18.540Z,100961.91
2022-09-25T13:00:50.534Z,100933.84
2022-09-25T13:03:25.192Z,100948.13
2022-09-25T13:06:17.417Z,100942.31
2022-09-25T13:08:52.888Z,100936.47
2022-09-25T13:11:35.992Z,100940.09
2022-09-25T13:14:10.465Z,100938.94
2022-09-25T13:16:39.907Z,100933.28
2022-09-25T13:19:12.851Z,100932.22
2022-09-25T13:21:43.951Z,100930.69
2022-09-25T13:24:15.698Z,100926.38
2022-09-25T13:26:47.910Z,100928.69
2022-09-25T13:29:24.132Z,100925.25
2022-09-25T13:31:53.465Z,100921.78
2022-09-25T13:34:24.470Z,100914.13
2022-09-25T13:36:57.401Z,100916.91
2022-09-25T13:39:50.628Z,100908.59
2022-09-25T13:42:25.623Z,100909.00
2022-09-25T13:45:07.739Z,100906.00
2022-09-25T13:47:58.977Z,100903.13
2022-09-25T13:50:34.758Z,100894.63
2022-09-25T13:53:24.257Z,100899.78
2022-09-25T13:56:19.607Z,100894.25
2022-09-25T13:59:04.198Z,100880.13
2022-09-25T14:01:45.331Z,100888.09
2022-09-25T14:04:24.283Z,100889.63
2022-09-25T14:07:01.395Z,100892.22
2022-09-25T14:09:32.760Z,100889.91
2022-09-25T14:12:08.879Z,100889.53
2022-09-25T14:14:45.454Z,100887.38
2022-09-25T14:17:17.035Z,100873.31
2022-09-25T14:19:48.942Z,100876.09
2022-09-25T14:22:24.745Z,100874.03
2022-09-25T14:24:54.114Z,100872.78
2022-09-25T14:27:26.499Z,100880.06
2022-09-25T14:30:05.135Z,100877.28
2022-09-25T14:32:55.757Z,100875.38
2022-09-25T14:35:36.029Z,100868.09
2022-09-25T14:38:37.286Z,100871.91
2022-09-25T14:41:39.480Z,100863.66
2022-09-25T14:44:32.431Z,100860.47
2022-09-25T14:47:00.493Z,100863.31
2022-09-25T14:49:30.940Z,100861.75
2022-09-25T14:52:02.840Z,100855.78
2022-09-25T14:54:36.590Z,100858.78
2022-09-25T14:57:07.530Z,100859.63
2022-09-25T14:59:42.399Z,100865.56
2022-09-25T15:02:18.786Z,100865.78
2022-09-25T15:04:46.943Z,100859.94
2022-09-25T15:07:18.849Z,100852.84
2022-09-25T15:09:48.509Z,100853.66
2022-09-25T15:12:21.334Z,100850.88
2022-09-25T15:15:04.081Z,100849.72
2022-09-25T15:17:31.578Z,100847.75
2022-09-25T15:20:04.017Z,100854.25
2022-09-25T15:26:19.446Z,100852.16
2022-09-25T15:28:49.477Z,100845.94
2022-09-25T15:31:17.565Z,100841.34
2022-09-25T15:33:45.659Z,100835.72
2022-09-25T15:36:20.207Z,100838.47
2022-09-25T15:39:00.098Z,100840.72
2022-09-25T15:41:28.882Z,100834.22
2022-09-25T15:44:20.129Z,100831.81
2022-09-25T15:46:51.619Z,100827.91
2022-09-25T15:49:25.561Z,100829.63
2022-09-25T15:52:00.016Z,100826.19
2022-09-25T15:54:34.564Z,100832.97
2022-09-25T15:57:06.178Z,100827.81
2022-09-25T16:00:02.323Z,100825.41
2022-09-25T16:02:53.613Z,100820.91
2022-09-25T16:05:32.881Z,100822.34
2022-09-25T16:08:17.589Z,100823.59
2022-09-25T16:10:50.149Z,100825.00
2022-09-25T16:13:21.979Z,100829.50
2022-09-25T16:15:54.627Z,100835.25
2022-09-25T16:18:35.340Z,100830.94
2022-09-25T16:21:20.655Z,100837.91
2022-09-25T16:23:56.130Z,100838.94
2022-09-25T16:26:27.523Z,100849.56
2022-09-25T16:29:03.497Z,100841.44
2022-09-25T16:31:36.436Z,100838.38
2022-09-25T16:34:05.764Z,100835.28
2022-09-25T16:36:43.693Z,100841.88
2022-09-25T16:39:41.247Z,100842.13
2022-09-25T16:42:31.315Z,100839.91
2022-09-25T16:45:05.524Z,100833.66
2022-09-25T16:47:35.179Z,100837.69
2022-09-25T16:50:03.967Z,100835.47
2022-09-25T16:53:03.645Z,100839.34
2022-09-25T16:55:38.147Z,100837.06
2022-09-25T16:58:09.832Z,100837.44
2022-09-25T17:00:37.753Z,100837.31
2022-09-25T17:03:07.154Z,100833.00
2022-09-25T17:05:36.355Z,100839.78
2022-09-25T17:08:17.997Z,100837.38
2022-09-25T17:10:52.626Z,100839.69
2022-09-25T17:13:27.913Z,100835.53
2022-09-25T17:16:00.359Z,100842.84
2022-09-25T17:21:48.282Z,100836.16
2022-09-25T17:24:24.377Z,100840.31
2022-09-25T17:26:54.805Z,100843.66
2022-09-25T17:29:25.162Z,100829.63
2022-09-25T17:32:02.567Z,100830.69
2022-09-25T17:34:32.993Z,100832.75
2022-09-25T17:37:14.651Z,100835.41
2022-09-25T17:39:43.616Z,100842.50
2022-09-25T17:42:23.494Z,100833.72
2022-09-25T17:45:24.227Z,100837.88
2022-09-25T17:47:56.680Z,100847.38
2022-09-25T17:50:35.477Z,100850.69
2022-09-25T17:53:20.335Z,100848.09
2022-09-25T17:55:54.342Z,100834.47
2022-09-25T17:58:26.424Z,100838.28
2022-09-25T18:01:00.473Z,100838.66
2022-09-25T18:03:30.327Z,100846.09
2022-09-25T18:05:59.956Z,100844.53
2022-09-25T18:08:27.868Z,100842.50
2022-09-25T18:10:58.819Z,100840.94
2022-09-25T18:13:26.941Z,100845.13
2022-09-25T18:15:57.215Z,100842.53
2022-09-25T18:18:25.803Z,100838.38
2022-09-25T18:21:11.313Z,100842.72
2022-09-25T18:23:40.602Z,100845.81
2022-09-25T18:26:10.061Z,100841.50
2022-09-25T18:28:38.226Z,100840.13
2022-09-25T18:31:06.367Z,100836.69
2022-09-25T18:33:34.594Z,100838.06
2022-09-25T18:36:02.780Z,100834.59
2022-09-25T18:38:31.333Z,100832.22
2022-09-25T18:41:03.512Z,100834.97
2022-09-25T18:43:31.793Z,100831.19
2022-09-25T18:46:01.181Z,100825.84
2022-09-25T18:48:29.401Z,100828.94
2022-09-25T18:50:57.171Z,100825.47
2022-09-25T18:53:25.632Z,100833.09
2022-09-25T18:55:54.864Z,100829.47
2022-09-25T18:58:24.029Z,100834.31
2022-09-25T19:00:51.914Z,100830.16
2022-09-25T19:03:19.649Z,100825.66
2022-09-25T19:05:58.258Z,100825.50
2022-09-25T19:08:26.110Z,100823.44
2022-09-25T19:10:53.951Z,100813.41
2022-09-25T19:13:22.026Z,100819.09
2022-09-25T19:15:51.186Z,100824.63
2022-09-25T19:18:19.146Z,100817.91
2022-09-25T19:20:48.469Z,100816.00
2022-09-25T19:23:16.317Z,100821.00
2022-09-25T19:25:53.614Z,100821.88
2022-09-25T19:28:23.601Z,100820.69
2022-09-25T19:31:00.111Z,100821.53
2022-09-25T19:33:31.185Z,100815.31
2022-09-25T19:35:59.355Z,100815.69
2022-09-25T19:38:27.583Z,100809.47
2022-09-25T19:40:55.502Z,100814.13
2022-09-25T19:43:24.133Z,100808.78
2022-09-25T19:45:53.566Z,100808.06
2022-09-25T19:48:24.019Z,100810.84
2022-09-25T19:50:52.032Z,100801.19
2022-09-25T19:53:19.843Z,100806.00
2022-09-25T19:55:51.630Z,100797.56
2022-09-25T19:58:23.121Z,100793.72
2022-09-25T20:00:51.840Z,100784.75
2022-09-25T20:03:20.181Z,100793.91
2022-09-25T20:05:49.617Z,100791.13
2022-09-25T20:08:17.410Z,100784.22
2022-09-25T20:10:45.607Z,100786.47
2022-09-25T20:13:14.482Z,100786.81
2022-09-25T20:15:44.942Z,100787.19
2022-09-25T20:18:12.773Z,100793.03
2022-09-25T20:20:40.625Z,100784.41
2022-09-25T20:23:10.417Z,100794.75
2022-09-25T20:25:39.114Z,100789.06
2022-09-25T20:28:06.899Z,100791.44
2022-09-25T20:30:35.638Z,100791.97
2022-09-25T20:33:04.749Z,100792.47
2022-09-25T20:35:32.555Z,100786.59
2022-09-25T20:38:00.353Z,100783.28
2022-09-25T20:40:29.630Z,100775.38
2022-09-25T20:42:57.374Z,100777.75
2022-09-25T20:45:25.190Z,100774.34
2022-09-25T20:47:55.352Z,100780.34
2022-09-25T20:50:23.134Z,100778.97
2022-09-25T20:52:51.000Z,100779.13
2022-09-25T20:55:20.063Z,100778.59
2022-09-25T20:57:49.208Z,100779.59
2022-09-25T21:00:19.423Z,100778.19
2022-09-25T21:02:47.592Z,100773.88
2022-09-25T21:05:15.550Z,100769.53
2022-09-25T21:07:43.397Z,100775.25
2022-09-25T21:10:11.262Z,100771.78
2022-09-25T21:12:39.016Z,100761.09
2022-09-25T21:15:09.238Z,100761.94
2022-09-25T21:17:36.978Z,100761.59
2022-09-25T21:20:05.152Z,100765.38
2022-09-25T21:22:32.935Z,100754.69
2022-09-25T21:25:00.708Z,100761.22
2022-09-25T21:27:30.779Z,100754.84
2022-09-25T21:29:58.635Z,100753.31
2022-09-25T21:32:30.098Z,100751.41
2022-09-25T21:34:57.883Z,100750.00
2022-09-25T21:37:25.681Z,100745.50
2022-09-25T21:39:53.489Z,100746.53
2022-09-25T21:42:22.065Z,100742.94
2022-09-25T21:44:50.212Z,100745.88
2022-09-25T21:47:19.107Z,100744.13
2022-09-25T21:49:48.907Z,100742.25
2022-09-25T21:52:16.648Z,100737.06
2022-09-25T21:54:44.383Z,100737.06
2022-09-25T21:57:12.162Z,100738.06
2022-09-25T21:59:41.242Z,100737.22
2022-09-25T22:02:09.046Z,100733.59
2022-09-25T22:04:36.841Z,100730.84
2022-09-25T22:07:06.165Z,100719.66
2022-09-25T22:09:34.076Z,100727.22
2022-09-25T22:12:02.126Z,100733.59
2022-09-25T22:14:29.984Z,100729.97
2022-09-25T22:16:57.790Z,100724.47
2022-09-25T22:19:27.996Z,100729.81
2022-09-25T22:21:57.853Z,100729.81
2022-09-25T22:24:27.641Z,100722.56
2022-09-25T22:26:56.808Z,100720.88
2022-09-25T22:29:24.852Z,100718.28
2022-09-25T22:31:53.019Z,100717.41
2022-09-25T22:34:22.591Z,100722.91
2022-09-25T22:36:56.257Z,100707.41
2022-09-25T22:39:27.277Z,100702.94
2022-09-25T22:41:56.530Z,100703.94
2022-09-25T22:44:24.536Z,100693.28
2022-09-25T22:46:52.369Z,100689.97
2022-09-25T22:49:20.189Z,100691.16
2022-09-25T22:51:47.935Z,100696.16
2022-09-25T22:54:16.774Z,100692.00
2022-09-25T22:56:45.971Z,100686.84
2022-09-25T22:59:16.092Z,100685.59
2022-09-25T23:01:46.523Z,100679.72
2022-09-25T23:04:16.070Z,100685.91
2022-09-25T23:06:44.069Z,100681.84
2022-09-25T23:09:14.071Z,100680.47
2022-09-25T23:11:42.303Z,100682.16
2022-09-25T23:14:16.800Z,100678.69
2022-09-25T23:16:45.648Z,100679.34
2022-09-25T23:19:13.949Z,100678.97
2022-09-25T23:21:42.631Z,100673.97
2022-09-25T23:24:13.362Z,100670.66
2022-09-25T23:26:41.213Z,100666.81
2022-09-25T23:29:09.586Z,100664.38
2022-09-25T23:31:38.717Z,100663.88
2022-09-25T23:34:06.493Z,100662.63
2022-09-25T23:36:36.053Z,100661.06
2022-09-25T23:39:05.499Z,100655.72
2022-09-25T23:41:35.706Z,100650.50
2022-09-25T23:44:05.757Z,100660.66
2022-09-25T23:46:36.234Z,100641.75
2022-09-25T23:49:05.873Z,100639.28
2022-09-25T23:51:34.114Z,100640.47
2022-09-25T23:54:02.982Z,100638.78
2022-09-25T23:56:33.513Z,100630.69
2022-09-25T23:59:02.224Z,100629.09
